createdAt,value
2022-10-07T00:01:06.085Z,98767.00
2022-10-07T00:03:34.665Z,98765.00
2022-10-07T00:06:17.875Z,98773.00
2022-10-07T00:08:48.220Z,98757.00
2022-10-07T00:11:25.869Z,98763.00
2022-10-07T00:13:59.931Z,98763.00
2022-10-07T00:16:34.873Z,98751.00
2022-10-07T00:19:06.189Z,98762.00
2022-10-07T00:21:35.709Z,98748.00
2022-10-07T00:24:04.812Z,98757.00
2022-10-07T00:26:35.731Z,98738.00
2022-10-07T00:29:05.805Z,98761.00
2022-10-07T00:31:36.443Z,98751.00
2022-10-07T00:34:05.209Z,98741.00
2022-10-07T00:36:37.346Z,98755.00
2022-10-07T00:39:12.378Z,98755.00
2022-10-07T00:41:52.008Z,98738.00
2022-10-07T00:44:34.163Z,98738.00
2022-10-07T00:47:24.124Z,98734.00
2022-10-07T00:50:04.086Z,98727.00
2022-10-07T00:52:39.110Z,98718.00
2022-10-07T00:55:13.067Z,98728.00
2022-10-07T00:57:42.580Z,98720.00
2022-10-07T01:00:11.087Z,98723.00
2022-10-07T01:02:39.359Z,98699.00
2022-10-07T01:05:09.499Z,98713.00
2022-10-07T01:07:38.128Z,98703.00
2022-10-07T01:10:07.089Z,98705.00
2022-10-07T01:12:59.274Z,98707.00
2022-10-07T01:15:54.508Z,98705.00
2022-10-07T01:18:49.488Z,98686.00
2022-10-07T01:22:05.573Z,98704.00
2022-10-07T01:24:50.821Z,98691.00
2022-10-07T01:27:22.652Z,98687.00
2022-10-07T01:30:05.158Z,98659.00
2022-10-07T01:32:49.460Z,98673.00
2022-10-07T01:35:25.109Z,98666.00
2022-10-07T01:38:00.342Z,98675.00
2022-10-07T01:40:39.755Z,98670.00
2022-10-07T01:43:07.126Z,98660.00
2022-10-07T01:45:40.906Z,98661.00
2022-10-07T01:48:08.631Z,98657.00
2022-10-07T01:50:37.628Z,98645.00
2022-10-07T01:53:15.249Z,98659.00
2022-10-07T01:56:29.270Z,98656.00
2022-10-07T01:59:21.820Z,98651.00
2022-10-07T02:02:26.352Z,98650.00
2022-10-07T02:05:26.314Z,98640.00
2022-10-07T02:08:31.340Z,98639.00
2022-10-07T02:11:25.514Z,98634.00
2022-10-07T02:14:14.070Z,98617.00
2022-10-07T02:16:57.111Z,98633.00
2022-10-07T02:19:37.221Z,98635.00
2022-10-07T02:22:07.002Z,98632.00
2022-10-07T02:24:37.536Z,98614.00
2022-10-07T02:27:13.834Z,98614.00
2022-10-07T02:29:45.882Z,98619.00
2022-10-07T02:32:21.111Z,98624.00
2022-10-07T02:35:00.406Z,98600.00
2022-10-07T02:37:33.933Z,98614.00
2022-10-07T02:40:07.126Z,98606.00
2022-10-07T02:42:59.494Z,98593.00
2022-10-07T02:45:46.003Z,98597.00
2022-10-07T02:48:30.559Z,98594.00
2022-10-07T02:51:06.070Z,98588.00
2022-10-07T02:53:34.682Z,98611.00
2022-10-07T02:56:03.729Z,98585.00
2022-10-07T02:58:31.070Z,98588.00
2022-10-07T03:01:02.292Z,98587.00
2022-10-07T03:03:30.322Z,98567.00
2022-10-07T03:06:01.678Z,98585.00
2022-10-07T03:08:29.874Z,98570.00
2022-10-07T03:10:57.449Z,98585.00
2022-10-07T03:13:25.295Z,98579.00
2022-10-07T03:15:57.096Z,98567.00
2022-10-07T03:18:27.276Z,98571.00
2022-10-07T03:21:08.544Z,98577.00
2022-10-07T03:23:35.490Z,98576.00
2022-10-07T03:26:02.382Z,98576.00
2022-10-07T03:28:33.289Z,98592.00
2022-10-07T03:31:09.949Z,98571.00
2022-10-07T03:33:40.432Z,98567.00
2022-10-07T03:36:09.104Z,98542.00
2022-10-07T03:38:37.548Z,98561.00
2022-10-07T03:41:04.778Z,98551.00
2022-10-07T03:43:33.709Z,98555.00
2022-10-07T03:46:02.404Z,98543.00
2022-10-07T03:48:31.540Z,98559.00
2022-10-07T03:50:59.374Z,98552.00
2022-10-07T03:53:29.850Z,98548.00
2022-10-07T03:55:58.937Z,98551.00
2022-10-07T03:58:25.871Z,98538.00
2022-10-07T04:00:52.822Z,98537.00
2022-10-07T04:03:20.550Z,98542.00
2022-10-07T04:06:01.417Z,98561.00
2022-10-07T04:08:32.838Z,98541.00
2022-10-07T04:11:03.758Z,98550.00
2022-10-07T04:13:31.977Z,98526.00
2022-10-07T04:15:59.154Z,98531.00
2022-10-07T04:18:26.759Z,98552.00
2022-10-07T04:20:54.364Z,98528.00
2022-10-07T04:23:21.793Z,98548.00
2022-10-07T04:25:48.682Z,98529.00
2022-10-07T04:28:22.365Z,98535.00
2022-10-07T04:30:54.549Z,98518.00
2022-10-07T04:33:27.154Z,98535.00
2022-10-07T04:35:56.028Z,98523.00
2022-10-07T04:38:28.107Z,98525.00
2022-10-07T04:40:56.870Z,98514.00
2022-10-07T04:43:24.195Z,98517.00
2022-10-07T04:46:17.313Z,98508.00
2022-10-07T04:48:52.329Z,98518.00
2022-10-07T04:51:23.697Z,98506.00
2022-10-07T04:53:56.805Z,98508.00
2022-10-07T04:56:31.162Z,98517.00
2022-10-07T04:58:58.355Z,98521.00
2022-10-07T05:01:25.694Z,98526.00
2022-10-07T05:03:52.715Z,98529.00
2022-10-07T05:06:20.707Z,98510.00
2022-10-07T05:08:49.780Z,98512.00
2022-10-07T05:11:16.626Z,98510.00
2022-10-07T05:13:52.481Z,98503.00
2022-10-07T05:16:21.055Z,98501.00
2022-10-07T05:18:47.950Z,98506.00
2022-10-07T05:21:16.331Z,98504.00
2022-10-07T05:23:46.028Z,98497.00
2022-10-07T05:26:17.289Z,98488.00
2022-10-07T05:28:49.400Z,98509.00
2022-10-07T05:31:23.403Z,98505.00
2022-10-07T05:33:55.404Z,98505.00
2022-10-07T05:36:24.599Z,98495.00
2022-10-07T05:38:57.997Z,98481.00
2022-10-07T05:41:29.572Z,98496.00
2022-10-07T05:43:57.679Z,98482.00
2022-10-07T05:46:26.014Z,98484.00
2022-10-07T05:48:56.861Z,98488.00
2022-10-07T05:51:27.285Z,98487.00
2022-10-07T05:53:57.519Z,98473.00
2022-10-07T05:56:31.950Z,98480.00
2022-10-07T05:58:59.203Z,98481.00
2022-10-07T06:01:28.573Z,98481.00
2022-10-07T06:03:57.920Z,98474.00
2022-10-07T06:06:30.040Z,98479.00
2022-10-07T06:09:21.248Z,98478.00
2022-10-07T06:12:07.704Z,98474.00
2022-10-07T06:14:36.954Z,98484.00
2022-10-07T06:17:05.161Z,98457.00
2022-10-07T06:19:32.423Z,98464.00
2022-10-07T06:22:01.651Z,98460.00
2022-10-07T06:24:28.693Z,98465.00
2022-10-07T06:26:56.181Z,98459.00
2022-10-07T06:29:24.251Z,98459.00
2022-10-07T06:31:51.330Z,98467.00
2022-10-07T06:34:19.247Z,98452.00
2022-10-07T06:36:46.888Z,98455.00
2022-10-07T06:39:17.659Z,98472.00
2022-10-07T06:41:46.340Z,98468.00
2022-10-07T06:44:38.047Z,98466.00
2022-10-07T06:47:10.642Z,98467.00
2022-10-07T06:49:39.384Z,98477.00
2022-10-07T06:52:07.116Z,98480.00
2022-10-07T06:54:34.527Z,98478.00
2022-10-07T06:57:01.419Z,98465.00
2022-10-07T06:59:29.245Z,98477.00
2022-10-07T07:02:03.213Z,98466.00
2022-10-07T07:04:31.613Z,98461.00
2022-10-07T07:06:58.830Z,98482.00
2022-10-07T07:09:26.186Z,98471.00
2022-10-07T07:11:56.555Z,98466.00
2022-10-07T07:14:29.269Z,98454.00
2022-10-07T07:17:02.684Z,98460.00
2022-10-07T07:19:30.226Z,98471.00
2022-10-07T07:21:57.323Z,98464.00
2022-10-07T07:24:26.474Z,98466.00
2022-10-07T07:26:53.712Z,98465.00
2022-10-07T07:29:22.036Z,98476.00
2022-10-07T07:31:56.310Z,98467.00
2022-10-07T07:34:25.991Z,98454.00
2022-10-07T07:36:52.931Z,98448.00
2022-10-07T07:39:23.840Z,98460.00
2022-10-07T07:41:57.155Z,98460.00
2022-10-07T07:44:25.427Z,98462.00
2022-10-07T07:46:56.100Z,98462.00
2022-10-07T07:49:24.537Z,98453.00
2022-10-07T07:51:52.201Z,98461.00
2022-10-07T07:54:28.498Z,98463.00
2022-10-07T07:56:57.645Z,98459.00
2022-10-07T07:59:26.777Z,98438.00
2022-10-07T08:01:56.191Z,98446.00
2022-10-07T08:04:23.736Z,98471.00
2022-10-07T08:06:51.108Z,98439.00
2022-10-07T08:09:19.025Z,98442.00
2022-10-07T08:11:47.576Z,98438.00
2022-10-07T08:14:17.823Z,98445.00
2022-10-07T08:16:48.152Z,98429.00
2022-10-07T08:19:15.339Z,98426.00
2022-10-07T08:21:42.409Z,98435.00
2022-10-07T08:24:14.409Z,98423.00
2022-10-07T08:26:41.464Z,98425.00
2022-10-07T08:29:13.530Z,98435.00
2022-10-07T08:31:42.451Z,98413.00
2022-10-07T08:34:11.260Z,98416.00
2022-10-07T08:36:39.582Z,98420.00
2022-10-07T08:39:07.175Z,98408.00
2022-10-07T08:42:16.267Z,98410.00
2022-10-07T08:44:50.820Z,98414.00
2022-10-07T08:47:38.599Z,98402.00
2022-10-07T08:50:19.822Z,98416.00
2022-10-07T08:52:50.931Z,98408.00
2022-10-07T08:55:27.964Z,98400.00
2022-10-07T08:58:30.938Z,98399.00
2022-10-07T09:01:15.695Z,98395.00
2022-10-07T09:03:53.495Z,98388.00
2022-10-07T09:06:45.465Z,98390.00
2022-10-07T09:09:23.583Z,98379.00
2022-10-07T09:11:52.780Z,98372.00
2022-10-07T09:14:38.398Z,98379.00
2022-10-07T09:17:22.003Z,98361.00
2022-10-07T09:19:56.594Z,98371.00
2022-10-07T09:22:39.621Z,98370.00
2022-10-07T09:25:13.514Z,98369.00
2022-10-07T09:27:40.383Z,98353.00
2022-10-07T09:30:12.969Z,98363.00
2022-10-07T09:32:45.167Z,98356.00
2022-10-07T09:35:22.013Z,98353.00
2022-10-07T09:38:09.905Z,98355.00
2022-10-07T09:41:05.930Z,98356.00
2022-10-07T09:43:35.100Z,98359.00
2022-10-07T09:46:02.545Z,98368.00
2022-10-07T09:48:34.231Z,98348.00
2022-10-07T09:51:15.719Z,98351.00
2022-10-07T09:54:18.352Z,98361.00
2022-10-07T09:56:47.100Z,98335.00
2022-10-07T09:59:30.138Z,98336.00
2022-10-07T10:02:18.760Z,98343.00
2022-10-07T10:04:56.376Z,98333.00
2022-10-07T10:07:55.286Z,98340.00
2022-10-07T10:10:29.956Z,98335.00
2022-10-07T10:13:00.495Z,98327.00
2022-10-07T10:15:36.361Z,98334.00
2022-10-07T10:18:34.148Z,98319.00
2022-10-07T10:21:28.550Z,98322.00
2022-10-07T10:24:15.048Z,98325.00
2022-10-07T10:27:12.892Z,98324.00
2022-10-07T10:30:04.324Z,98313.00
2022-10-07T10:32:55.611Z,98306.00
2022-10-07T10:35:30.927Z,98300.00
2022-10-07T10:38:48.098Z,98298.00
2022-10-07T10:41:50.611Z,98289.00
2022-10-07T10:44:59.928Z,98287.00
2022-10-07T10:48:25.655Z,98284.00
2022-10-07T10:51:14.054Z,98280.00
2022-10-07T10:54:20.384Z,98279.00
2022-10-07T10:57:17.482Z,98270.00
2022-10-07T11:00:17.703Z,98264.00
2022-10-07T11:02:59.640Z,98254.00
2022-10-07T11:05:32.744Z,98266.00
2022-10-07T11:08:27.325Z,98246.00
2022-10-07T11:11:17.237Z,98236.00
2022-10-07T11:14:14.047Z,98238.00
2022-10-07T11:17:01.309Z,98236.00
2022-10-07T11:19:55.191Z,98228.00
2022-10-07T11:22:36.326Z,98211.00
2022-10-07T11:25:33.017Z,98205.00
2022-10-07T11:28:16.938Z,98200.00
2022-10-07T11:31:13.661Z,98214.00
2022-10-07T11:34:13.475Z,98210.00
2022-10-07T11:37:03.151Z,98204.00
2022-10-07T11:39:30.424Z,98185.00
2022-10-07T11:42:12.000Z,98180.00
2022-10-07T11:45:17.804Z,98184.00
2022-10-07T11:47:59.800Z,98156.00
2022-10-07T11:50:35.343Z,98165.00
2022-10-07T11:53:18.961Z,98167.00
2022-10-07T11:55:58.316Z,98163.00
2022-10-07T11:58:37.240Z,98162.00
2022-10-07T12:01:25.803Z,98149.00
2022-10-07T12:04:12.903Z,98157.00
2022-10-07T12:06:39.832Z,98157.00
2022-10-07T12:10:03.244Z,98162.00
2022-10-07T12:12:45.066Z,98151.00
2022-10-07T12:15:32.581Z,98143.00
2022-10-07T12:18:06.124Z,98129.00
2022-10-07T12:20:34.541Z,98132.00
2022-10-07T12:23:23.915Z,98129.00
2022-10-07T12:26:25.948Z,98116.00
2022-10-07T12:28:53.690Z,98106.00
2022-10-07T12:31:23.704Z,98100.00
2022-10-07T12:33:58.696Z,98101.00
2022-10-07T12:36:28.096Z,98106.00
2022-10-07T12:38:56.191Z,98102.00
2022-10-07T12:41:40.131Z,98095.00
2022-10-07T12:44:27.348Z,98087.00
2022-10-07T12:47:05.048Z,98079.00
2022-10-07T12:49:49.104Z,98089.00
2022-10-07T12:52:42.162Z,98070.00
2022-10-07T12:55:29.457Z,98081.00
2022-10-07T12:58:18.359Z,98057.00
2022-10-07T13:01:26.310Z,98068.00
2022-10-07T13:04:32.982Z,98064.00
2022-10-07T13:07:40.349Z,98054.00
2022-10-07T13:10:41.405Z,98056.00
2022-10-07T13:13:26.159Z,98051.00
2022-10-07T13:16:13.744Z,98056.00
2022-10-07T13:19:04.362Z,98015.00
2022-10-07T13:21:43.107Z,98018.00
2022-10-07T13:24:20.582Z,98024.00
2022-10-07T13:26:47.857Z,98028.00
2022-10-07T13:29:35.671Z,98010.00
2022-10-07T13:32:18.427Z,98022.00
2022-10-07T13:34:46.318Z,98005.00
2022-10-07T13:37:28.504Z,98006.00
2022-10-07T13:39:58.062Z,97998.00
2022-10-07T13:42:29.512Z,98014.00
2022-10-07T13:45:02.987Z,98003.00
2022-10-07T13:47:36.622Z,97998.00
2022-10-07T13:50:04.537Z,97995.00
2022-10-07T13:52:41.743Z,97984.00
2022-10-07T13:55:34.258Z,97994.00
2022-10-07T13:58:06.500Z,97991.00
2022-10-07T14:00:40.316Z,97997.00
2022-10-07T14:03:18.320Z,97984.00
2022-10-07T14:05:53.987Z,97979.00
2022-10-07T14:08:29.632Z,97983.00
2022-10-07T14:11:04.159Z,97962.00
2022-10-07T14:13:34.533Z,97972.00
2022-10-07T14:16:01.732Z,97960.00
2022-10-07T14:18:31.243Z,97958.00
2022-10-07T14:21:16.999Z,97959.00
2022-10-07T14:23:49.439Z,97948.00
2022-10-07T14:26:17.630Z,97948.00
2022-10-07T14:28:45.264Z,97941.00
2022-10-07T14:31:39.484Z,97939.00
2022-10-07T14:34:38.569Z,97936.00
2022-10-07T14:37:09.402Z,97935.00
2022-10-07T14:39:42.392Z,97934.00
2022-10-07T14:42:18.305Z,97925.00
2022-10-07T14:44:46.599Z,97927.00
2022-10-07T14:47:20.902Z,97931.00
2022-10-07T14:49:48.701Z,97922.00
2022-10-07T14:52:43.568Z,97927.00
2022-10-07T14:55:22.028Z,97922.00
2022-10-07T14:57:49.516Z,97921.00
2022-10-07T15:00:24.028Z,97910.00
2022-10-07T15:02:51.322Z,97905.00
2022-10-07T15:05:18.903Z,97911.00
2022-10-07T15:07:45.892Z,97913.00
2022-10-07T15:10:18.133Z,97904.00
2022-10-07T15:12:45.789Z,97900.00
2022-10-07T15:15:14.742Z,97907.00
2022-10-07T15:17:42.997Z,97898.00
2022-10-07T15:20:14.187Z,97901.00
2022-10-07T15:22:42.908Z,97880.00
2022-10-07T15:25:11.782Z,97880.00
2022-10-07T15:27:38.892Z,97885.00
2022-10-07T15:30:07.190Z,97872.00
2022-10-07T15:32:34.477Z,97880.00
2022-10-07T15:35:01.730Z,97885.00
2022-10-07T15:37:28.722Z,97875.00
2022-10-07T15:39:55.523Z,97873.00
2022-10-07T15:42:26.095Z,97858.00
2022-10-07T15:44:53.208Z,97856.00
2022-10-07T15:47:20.240Z,97858.00
2022-10-07T15:49:47.350Z,97844.00
2022-10-07T15:52:14.222Z,97851.00
2022-10-07T15:54:41.352Z,97847.00
2022-10-07T15:57:08.440Z,97856.00
2022-10-07T15:59:35.911Z,97860.00
2022-10-07T16:02:05.771Z,97857.00
2022-10-07T16:04:32.866Z,97856.00
2022-10-07T16:06:59.784Z,97859.00
2022-10-07T16:09:27.044Z,97866.00
2022-10-07T16:11:54.091Z,97855.00
2022-10-07T16:14:21.236Z,97860.00
2022-10-07T16:16:48.210Z,97865.00
2022-10-07T16:19:15.130Z,97865.00
2022-10-07T16:21:43.759Z,97862.00
2022-10-07T16:24:17.410Z,97860.00
2022-10-07T16:26:46.130Z,97861.00
2022-10-07T16:29:43.579Z,97855.00
2022-10-07T16:32:11.957Z,97852.00
2022-10-07T16:34:43.198Z,97848.00
2022-10-07T16:37:11.863Z,97855.00
2022-10-07T16:39:38.782Z,97844.00
2022-10-07T16:42:05.957Z,97845.00
2022-10-07T16:44:33.053Z,97845.00
2022-10-07T16:47:00.175Z,97852.00
2022-10-07T16:49:29.189Z,97845.00
2022-10-07T16:51:57.632Z,97836.00
2022-10-07T16:54:25.309Z,97846.00
2022-10-07T16:56:53.158Z,97844.00
2022-10-07T16:59:24.713Z,97845.00
2022-10-07T17:01:57.049Z,97852.00
2022-10-07T17:04:25.583Z,97856.00
2022-10-07T17:06:53.335Z,97844.00
2022-10-07T17:09:21.720Z,97854.00
2022-10-07T17:11:48.585Z,97857.00
2022-10-07T17:14:23.436Z,97861.00
2022-10-07T17:16:56.335Z,97857.00
2022-10-07T17:19:26.639Z,97856.00
2022-10-07T17:21:56.178Z,97846.00
2022-10-07T17:24:23.841Z,97841.00
2022-10-07T17:26:52.383Z,97857.00
2022-10-07T17:29:21.445Z,97841.00
2022-10-07T17:31:50.460Z,97837.00
2022-10-07T17:34:20.661Z,97844.00
2022-10-07T17:36:49.374Z,97838.00
2022-10-07T17:39:18.899Z,97840.00
2022-10-07T17:41:46.475Z,97818.00
2022-10-07T17:44:13.581Z,97844.00
2022-10-07T17:46:41.296Z,97833.00
2022-10-07T17:49:13.502Z,97844.00
2022-10-07T17:51:42.799Z,97832.00
2022-10-07T17:54:12.524Z,97837.00
2022-10-07T17:56:39.799Z,97832.00
2022-10-07T17:59:06.876Z,97833.00
2022-10-07T18:01:35.410Z,97817.00
2022-10-07T18:04:09.446Z,97837.00
2022-10-07T18:06:38.960Z,97849.00
2022-10-07T18:09:08.078Z,97825.00
2022-10-07T18:11:54.242Z,97837.00
2022-10-07T18:14:40.060Z,97828.00
2022-10-07T18:17:08.988Z,97827.00
2022-10-07T18:19:36.309Z,97831.00
2022-10-07T18:22:03.306Z,97822.00
2022-10-07T18:24:30.210Z,97828.00
2022-10-07T18:26:59.419Z,97813.00
2022-10-07T18:29:33.270Z,97824.00
2022-10-07T18:32:01.213Z,97828.00
2022-10-07T18:34:28.169Z,97820.00
2022-10-07T18:36:57.096Z,97822.00
2022-10-07T18:39:29.317Z,97825.00
2022-10-07T18:41:57.125Z,97808.00
2022-10-07T18:44:24.021Z,97803.00
2022-10-07T18:46:51.437Z,97810.00
2022-10-07T18:49:18.542Z,97803.00
2022-10-07T18:51:50.417Z,97811.00
2022-10-07T18:54:19.007Z,97809.00
2022-10-07T18:56:50.734Z,97806.00
2022-10-07T18:59:19.759Z,97800.00
2022-10-07T19:01:50.525Z,97810.00
2022-10-07T19:04:19.362Z,97807.00
2022-10-07T19:06:47.286Z,97800.00
2022-10-07T19:09:18.961Z,97801.00
2022-10-07T19:11:46.656Z,97810.00
2022-10-07T19:14:14.257Z,97817.00
2022-10-07T19:16:43.386Z,97814.00
2022-10-07T19:19:15.494Z,97815.00
2022-10-07T19:21:47.558Z,97810.00
2022-10-07T19:24:16.060Z,97816.00
2022-10-07T19:26:50.167Z,97815.00
2022-10-07T19:29:17.975Z,97813.00
2022-10-07T19:31:51.170Z,97812.00
2022-10-07T19:34:21.868Z,97803.00
2022-10-07T19:36:49.893Z,97817.00
2022-10-07T19:39:22.022Z,97816.00
2022-10-07T19:41:50.886Z,97813.00
2022-10-07T19:44:18.591Z,97811.00
2022-10-07T19:46:50.464Z,97788.00
2022-10-07T19:49:17.403Z,97799.00
2022-10-07T19:51:45.443Z,97795.00
2022-10-07T19:54:13.036Z,97798.00
2022-10-07T19:56:40.908Z,97810.00
2022-10-07T19:59:11.872Z,97795.00
2022-10-07T20:01:45.211Z,97796.00
2022-10-07T20:04:20.516Z,97810.00
2022-10-07T20:06:48.571Z,97802.00
2022-10-07T20:09:18.755Z,97810.00
2022-10-07T20:11:46.775Z,97804.00
2022-10-07T20:14:15.981Z,97777.00
2022-10-07T20:16:43.487Z,97796.00
2022-10-07T20:19:18.997Z,97799.00
2022-10-07T20:21:46.474Z,97798.00
2022-10-07T20:24:16.153Z,97788.00
2022-10-07T20:26:44.379Z,97785.00
2022-10-07T20:29:13.684Z,97805.00
2022-10-07T20:31:42.148Z,97795.00
2022-10-07T20:34:18.294Z,97779.00
2022-10-07T20:36:45.331Z,97793.00
2022-10-07T20:39:37.575Z,97795.00
2022-10-07T20:42:21.552Z,97779.00
2022-10-07T20:44:49.675Z,97794.00
2022-10-07T20:47:18.279Z,97782.00
2022-10-07T20:49:45.584Z,97778.00
2022-10-07T20:52:16.940Z,97788.00
2022-10-07T20:54:45.531Z,97799.00
2022-10-07T20:57:16.184Z,97810.00
2022-10-07T20:59:43.619Z,97797.00
2022-10-07T21:02:13.793Z,97792.00
2022-10-07T21:04:40.799Z,97798.00
2022-10-07T21:07:08.413Z,97790.00
2022-10-07T21:09:39.803Z,97791.00
2022-10-07T21:12:13.587Z,97791.00
2022-10-07T21:14:40.693Z,97778.00
2022-10-07T21:17:08.339Z,97780.00
2022-10-07T21:19:36.492Z,97780.00
2022-10-07T21:22:05.845Z,97772.00
2022-10-07T21:24:36.734Z,97773.00
2022-10-07T21:27:07.583Z,97778.00
2022-10-07T21:29:40.151Z,97774.00
2022-10-07T21:32:09.297Z,97771.00
2022-10-07T21:34:39.470Z,97758.00
2022-10-07T21:37:07.108Z,97770.00
2022-10-07T21:39:35.109Z,97777.00
2022-10-07T21:42:02.087Z,97785.00
2022-10-07T21:44:29.343Z,97758.00
2022-10-07T21:46:59.756Z,97765.00
2022-10-07T21:49:26.850Z,97762.00
2022-10-07T21:51:53.818Z,97760.00
2022-10-07T21:54:20.997Z,97769.00
2022-10-07T21:56:49.519Z,97759.00
2022-10-07T21:59:16.573Z,97773.00
2022-10-07T22:01:43.469Z,97758.00
2022-10-07T22:04:18.245Z,97771.00
2022-10-07T22:07:04.952Z,97749.00
2022-10-07T22:09:32.153Z,97757.00
2022-10-07T22:11:59.905Z,97753.00
2022-10-07T22:14:27.673Z,97758.00
2022-10-07T22:16:54.724Z,97759.00
2022-10-07T22:19:22.874Z,97757.00
2022-10-07T22:21:49.943Z,97766.00
2022-10-07T22:24:16.787Z,97754.00
2022-10-07T22:26:48.091Z,97754.00
2022-10-07T22:29:18.137Z,97771.00
2022-10-07T22:31:45.708Z,97739.00
2022-10-07T22:34:33.025Z,97748.00
2022-10-07T22:37:00.290Z,97747.00
2022-10-07T22:39:28.900Z,97742.00
2022-10-07T22:42:00.959Z,97736.00
2022-10-07T22:44:28.587Z,97741.00
2022-10-07T22:46:56.778Z,97736.00
2022-10-07T22:49:29.403Z,97746.00
2022-10-07T22:51:59.373Z,97726.00
2022-10-07T22:54:26.813Z,97725.00
2022-10-07T22:56:53.660Z,97739.00
2022-10-07T22:59:21.167Z,97737.00
2022-10-07T23:01:48.062Z,97722.00
2022-10-07T23:04:15.020Z,97710.00
2022-10-07T23:06:41.839Z,97720.00
2022-10-07T23:09:08.863Z,97720.00
2022-10-07T23:11:35.726Z,97723.00
2022-10-07T23:14:02.586Z,97731.00
2022-10-07T23:16:30.278Z,97724.00
2022-10-07T23:18:58.977Z,97723.00
2022-10-07T23:21:29.263Z,97723.00
2022-10-07T23:24:06.012Z,97712.00
2022-10-07T23:26:34.347Z,97707.00
2022-10-07T23:29:02.136Z,97721.00
2022-10-07T23:31:31.661Z,97709.00
2022-10-07T23:34:00.909Z,97719.00
2022-10-07T23:36:28.599Z,97717.00
2022-10-07T23:38:55.970Z,97710.00
2022-10-07T23:41:27.440Z,97723.00
2022-10-07T23:44:00.453Z,97710.00
2022-10-07T23:46:29.630Z,97709.00
2022-10-07T23:48:56.471Z,97705.00
2022-10-07T23:51:27.780Z,97705.00
2022-10-07T23:53:59.500Z,97715.00
2022-10-07T23:56:26.619Z,97707.00
2022-10-07T23:58:53.467Z,97696.00
